createdAt,value
2022-12-22T00:02:22.255Z,75.32
2022-12-22T00:05:44.199Z,78.62
2022-12-22T00:09:06.038Z,77.67
2022-12-22T00:12:30.874Z,85.28
2022-12-22T00:15:53.801Z,80.15
2022-12-22T00:19:14.947Z,86.60
2022-12-22T00:22:36.105Z,95.65
2022-12-22T00:25:57.362Z,94.43
2022-12-22T00:29:21.647Z,97.00
2022-12-22T00:32:43.364Z,86.22
2022-12-22T00:36:07.576Z,99.75
2022-12-22T00:39:33.270Z,97.95
2022-12-22T00:42:54.550Z,96.13
2022-12-22T00:46:16.843Z,109.15
2022-12-22T00:49:38.643Z,104.72
2022-12-22T00:52:59.943Z,112.40
2022-12-22T00:56:25.780Z,127.90
2022-12-22T00:59:48.285Z,132.23
2022-12-22T01:03:09.651Z,127.47
2022-12-22T01:06:34.348Z,142.75
2022-12-22T01:09:55.619Z,151.27
2022-12-22T01:13:16.814Z,145.02
2022-12-22T01:16:38.191Z,152.60
2022-12-22T01:19:59.697Z,231.70
2022-12-22T01:23:21.066Z,189.13
2022-12-22T01:26:42.788Z,266.30
2022-12-22T01:30:07.155Z,226.45
2022-12-22T01:33:32.484Z,212.67
2022-12-22T01:37:00.248Z,164.88
2022-12-22T01:40:21.623Z,181.20
2022-12-22T01:43:47.069Z,182.62
2022-12-22T01:47:08.291Z,177.75
2022-12-22T01:50:29.653Z,153.03
2022-12-22T01:53:51.393Z,144.57
2022-12-22T01:57:12.772Z,146.98
2022-12-22T02:00:33.925Z,145.82
2022-12-22T02:03:55.618Z,136.07
2022-12-22T02:07:24.540Z,134.47
2022-12-22T02:10:56.126Z,154.73
2022-12-22T02:14:43.337Z,158.52
2022-12-22T02:18:29.127Z,120.00
2022-12-22T02:21:59.858Z,124.15
2022-12-22T02:25:36.621Z,105.43
2022-12-22T02:28:58.906Z,128.05
2022-12-22T02:32:20.755Z,117.40
2022-12-22T02:35:42.282Z,105.85
2022-12-22T02:39:40.401Z,104.32
2022-12-22T02:43:09.162Z,91.07
2022-12-22T02:46:42.649Z,102.57
2022-12-22T02:50:14.045Z,102.60
2022-12-22T02:53:37.227Z,99.15
2022-12-22T02:57:00.289Z,101.80
2022-12-22T03:00:24.135Z,98.23
2022-12-22T03:03:45.517Z,101.53
2022-12-22T03:07:06.827Z,108.55
2022-12-22T03:10:29.071Z,115.20
2022-12-22T03:13:50.249Z,109.72
2022-12-22T03:17:11.377Z,109.63
2022-12-22T03:20:33.119Z,118.75
2022-12-22T03:23:54.491Z,118.87
2022-12-22T03:26:57.279Z,102.22
2022-12-22T03:29:59.956Z,95.68
2022-12-22T03:33:02.751Z,99.50
2022-12-22T03:36:06.367Z,96.25
2022-12-22T03:39:10.215Z,97.65
2022-12-22T03:42:31.497Z,100.05
2022-12-22T03:45:55.739Z,118.53
2022-12-22T03:49:12.744Z,95.87
2022-12-22T03:52:15.647Z,103.20
2022-12-22T03:55:21.375Z,117.28
2022-12-22T03:58:26.881Z,90.65
2022-12-22T04:01:29.882Z,93.43
2022-12-22T04:04:33.027Z,106.37
2022-12-22T04:07:35.755Z,100.68
2022-12-22T04:10:56.984Z,96.07
2022-12-22T04:13:59.944Z,252.23
2022-12-22T04:17:06.977Z,110.90
2022-12-22T04:20:10.380Z,229.10
2022-12-22T04:23:13.254Z,238.40
2022-12-22T04:26:19.079Z,295.30
2022-12-22T04:29:21.920Z,291.30
2022-12-22T04:32:25.359Z,120.28
2022-12-22T04:35:31.295Z,100.83
2022-12-22T04:38:34.825Z,101.28
2022-12-22T04:41:38.098Z,94.25
2022-12-22T04:44:40.814Z,96.15
2022-12-22T04:47:43.623Z,82.53
2022-12-22T04:50:47.062Z,86.40
2022-12-22T04:53:49.863Z,87.82
2022-12-22T04:56:53.633Z,87.65
2022-12-22T04:59:56.786Z,81.57
2022-12-22T05:02:59.757Z,84.35
2022-12-22T05:06:02.860Z,91.50
2022-12-22T05:09:05.751Z,80.43
2022-12-22T05:12:27.498Z,80.80
2022-12-22T05:15:32.495Z,79.45
2022-12-22T05:18:36.195Z,86.97
2022-12-22T05:21:38.916Z,88.10
2022-12-22T05:24:42.911Z,73.57
2022-12-22T05:27:46.878Z,75.12
2022-12-22T05:30:49.853Z,81.87
2022-12-22T05:33:52.771Z,72.30
2022-12-22T05:36:55.594Z,77.60
2022-12-22T05:39:58.327Z,74.25
2022-12-22T05:43:01.115Z,74.03
2022-12-22T05:46:05.834Z,87.05
2022-12-22T05:49:08.936Z,88.93
2022-12-22T05:52:11.639Z,74.83
2022-12-22T05:55:17.820Z,72.22
2022-12-22T05:58:20.498Z,81.78
2022-12-22T06:01:23.453Z,77.37
2022-12-22T06:04:26.431Z,74.00
2022-12-22T06:07:29.317Z,70.57
2022-12-22T06:10:33.304Z,74.97
2022-12-22T06:13:36.381Z,69.15
2022-12-22T06:16:39.261Z,72.18
2022-12-22T06:19:48.449Z,72.37
2022-12-22T06:22:51.190Z,74.07
2022-12-22T06:25:58.848Z,77.28
2022-12-22T06:29:05.175Z,79.00
2022-12-22T06:32:08.074Z,73.68
2022-12-22T06:35:11.025Z,67.97
2022-12-22T06:38:13.901Z,80.47
2022-12-22T06:41:36.825Z,74.40
2022-12-22T06:44:39.749Z,82.57
2022-12-22T06:47:42.667Z,71.45
2022-12-22T06:50:45.661Z,73.25
2022-12-22T06:53:48.370Z,77.53
2022-12-22T06:56:51.118Z,76.70
2022-12-22T06:59:57.645Z,70.07
2022-12-22T07:03:01.288Z,77.65
2022-12-22T07:06:07.571Z,72.35
2022-12-22T07:09:10.697Z,72.53
2022-12-22T07:12:13.763Z,72.50
2022-12-22T07:15:16.742Z,70.45
2022-12-22T07:18:19.673Z,75.70
2022-12-22T07:21:25.644Z,69.30
2022-12-22T07:24:29.603Z,70.43
2022-12-22T07:27:32.358Z,79.55
2022-12-22T07:30:36.936Z,72.22
2022-12-22T07:33:40.088Z,72.70
2022-12-22T07:36:46.089Z,78.62
2022-12-22T07:39:48.843Z,72.87
2022-12-22T07:42:56.901Z,63.60
2022-12-22T07:45:59.714Z,70.72
2022-12-22T07:49:23.263Z,67.18
2022-12-22T07:52:26.102Z,69.10
2022-12-22T07:55:31.522Z,83.27
2022-12-22T07:58:37.533Z,78.07
2022-12-22T08:01:41.690Z,92.78
2022-12-22T08:04:47.572Z,90.93
2022-12-22T08:07:51.261Z,86.87
2022-12-22T08:10:55.415Z,100.23
2022-12-22T08:14:01.670Z,96.57
2022-12-22T08:17:08.189Z,91.57
2022-12-22T08:20:11.532Z,93.20
2022-12-22T08:23:18.349Z,90.82
2022-12-22T08:26:23.988Z,97.37
2022-12-22T08:29:35.263Z,100.28
2022-12-22T08:32:39.893Z,100.15
2022-12-22T08:35:45.820Z,84.00
2022-12-22T08:38:48.785Z,91.47
2022-12-22T08:41:51.999Z,89.77
2022-12-22T08:44:55.023Z,93.43
2022-12-22T08:48:00.280Z,90.78
2022-12-22T08:51:03.010Z,87.35
2022-12-22T08:54:06.709Z,98.03
2022-12-22T08:57:09.980Z,80.93
2022-12-22T09:00:15.553Z,89.37
2022-12-22T09:03:21.360Z,87.28
2022-12-22T09:06:31.875Z,92.37
2022-12-22T09:09:37.813Z,86.40
2022-12-22T09:12:40.642Z,89.43
2022-12-22T09:15:43.472Z,84.75
2022-12-22T09:18:47.711Z,81.45
2022-12-22T09:21:50.645Z,84.87
2022-12-22T09:24:53.373Z,87.18
2022-12-22T09:27:56.111Z,95.23
2022-12-22T09:30:59.109Z,82.62
2022-12-22T09:34:02.043Z,148.38
2022-12-22T09:37:09.645Z,121.05
2022-12-22T09:40:21.956Z,88.32
2022-12-22T09:43:29.754Z,129.80
2022-12-22T09:46:35.321Z,152.77
2022-12-22T09:49:38.216Z,97.40
2022-12-22T09:52:48.693Z,76.80
2022-12-22T09:55:52.078Z,79.87
2022-12-22T09:58:55.426Z,89.13
2022-12-22T10:02:17.056Z,78.75
2022-12-22T10:05:28.717Z,86.90
2022-12-22T10:08:37.405Z,77.60
2022-12-22T10:11:40.172Z,86.43
2022-12-22T10:14:45.465Z,72.73
2022-12-22T10:17:51.272Z,71.68
2022-12-22T10:21:12.599Z,75.10
2022-12-22T10:24:35.893Z,72.03
2022-12-22T10:27:42.999Z,76.97
2022-12-22T10:30:48.682Z,75.27
2022-12-22T10:33:54.985Z,70.95
2022-12-22T10:37:03.077Z,74.05
2022-12-22T10:40:20.812Z,73.68
2022-12-22T10:43:31.397Z,74.28
2022-12-22T10:46:38.661Z,72.17
2022-12-22T10:52:57.677Z,69.25
2022-12-22T10:56:08.646Z,63.42
2022-12-22T10:59:31.682Z,70.75
2022-12-22T11:02:40.628Z,68.30
2022-12-22T11:05:44.881Z,70.07
2022-12-22T11:08:51.586Z,71.35
2022-12-22T11:12:14.075Z,66.62
2022-12-22T11:15:24.876Z,69.05
2022-12-22T11:18:43.683Z,67.63
2022-12-22T11:22:24.897Z,64.12
2022-12-22T11:25:36.637Z,64.75
2022-12-22T11:28:55.258Z,59.72
2022-12-22T11:32:48.816Z,66.47
2022-12-22T11:36:06.497Z,62.80
2022-12-22T11:39:17.970Z,70.03
2022-12-22T11:43:03.951Z,71.57
2022-12-22T11:46:21.888Z,68.80
2022-12-22T11:49:40.309Z,72.12
2022-12-22T11:53:21.785Z,68.87
2022-12-22T11:56:25.395Z,74.53
2022-12-22T11:59:31.163Z,71.10
2022-12-22T12:02:40.123Z,68.45
2022-12-22T12:05:55.101Z,71.62
2022-12-22T12:09:19.863Z,75.87
2022-12-22T12:13:08.191Z,73.93
2022-12-22T12:16:35.387Z,87.30
2022-12-22T12:20:21.896Z,70.57
2022-12-22T12:23:48.909Z,64.10
2022-12-22T12:27:25.236Z,66.50
2022-12-22T12:30:39.506Z,71.55
2022-12-22T12:33:52.810Z,70.03
2022-12-22T12:37:33.885Z,68.30
2022-12-22T12:41:00.957Z,66.28
2022-12-22T12:44:04.297Z,69.27
2022-12-22T12:47:28.683Z,66.07
2022-12-22T12:50:34.161Z,66.45
2022-12-22T12:54:15.443Z,62.30
2022-12-22T12:57:30.496Z,68.85
2022-12-22T13:00:34.161Z,74.27
2022-12-22T13:04:03.212Z,70.07
2022-12-22T13:07:07.060Z,68.30
2022-12-22T13:10:22.268Z,72.85
2022-12-22T13:13:25.060Z,71.47
2022-12-22T13:16:31.018Z,76.70
2022-12-22T13:19:34.350Z,76.00
2022-12-22T13:22:37.326Z,78.25
2022-12-22T13:25:42.833Z,77.00
2022-12-22T13:28:52.600Z,78.12
2022-12-22T13:32:02.998Z,77.63
2022-12-22T13:35:42.971Z,75.00
2022-12-22T13:39:00.171Z,74.53
2022-12-22T13:42:06.253Z,70.32
2022-12-22T13:45:20.729Z,79.00
2022-12-22T13:48:44.259Z,77.93
2022-12-22T13:51:48.386Z,71.57
2022-12-22T13:54:51.175Z,69.07
2022-12-22T13:57:58.403Z,76.07
2022-12-22T14:01:21.957Z,71.10
2022-12-22T14:04:26.958Z,69.13
2022-12-22T14:07:30.808Z,75.53
2022-12-22T14:10:42.823Z,70.40
2022-12-22T14:13:47.389Z,77.80
2022-12-22T14:16:51.770Z,68.30
2022-12-22T14:19:59.903Z,77.03
2022-12-22T14:23:02.639Z,72.72
2022-12-22T14:26:06.818Z,72.72
2022-12-22T14:29:15.272Z,71.87
2022-12-22T14:32:39.542Z,70.62
2022-12-22T14:35:42.427Z,70.53
2022-12-22T14:38:49.002Z,68.85
2022-12-22T14:41:57.524Z,68.75
2022-12-22T14:45:00.408Z,69.60
2022-12-22T14:48:09.162Z,74.37
2022-12-22T14:51:17.218Z,74.40
2022-12-22T14:54:24.524Z,71.18
2022-12-22T14:57:38.102Z,71.70
2022-12-22T15:00:50.469Z,70.82
2022-12-22T15:04:02.890Z,73.97
2022-12-22T15:08:03.593Z,80.50
2022-12-22T15:10:44.863Z,76.97
2022-12-22T15:13:48.689Z,75.78
2022-12-22T15:16:56.587Z,63.90
2022-12-22T15:19:59.669Z,66.32
2022-12-22T15:23:02.668Z,63.40
2022-12-22T15:26:05.919Z,72.75
2022-12-22T15:29:08.820Z,71.43
2022-12-22T15:32:13.212Z,71.37
2022-12-22T15:35:31.123Z,73.20
2022-12-22T15:38:38.656Z,71.47
2022-12-22T15:41:42.233Z,68.00
2022-12-22T15:44:44.974Z,72.85
2022-12-22T15:47:55.288Z,77.30
2022-12-22T15:50:59.633Z,74.47
2022-12-22T15:54:02.908Z,71.97
2022-12-22T15:57:05.701Z,72.15
2022-12-22T16:00:12.695Z,76.28
2022-12-22T16:03:15.553Z,76.93
2022-12-22T16:06:20.476Z,69.22
2022-12-22T16:09:27.866Z,69.80
2022-12-22T16:12:31.784Z,71.72
2022-12-22T16:15:35.512Z,85.12
2022-12-22T16:18:40.344Z,86.90
2022-12-22T16:21:45.382Z,84.43
2022-12-22T16:24:49.796Z,82.50
2022-12-22T16:27:52.826Z,81.25
2022-12-22T16:31:01.392Z,80.05
2022-12-22T16:34:05.030Z,77.87
2022-12-22T16:37:07.889Z,77.20
2022-12-22T16:40:12.736Z,73.97
2022-12-22T16:46:41.732Z,61.97
2022-12-22T16:49:47.022Z,66.55
2022-12-22T16:52:50.227Z,70.72
2022-12-22T16:55:53.235Z,66.73
2022-12-22T16:58:56.498Z,83.62
2022-12-22T17:01:59.437Z,64.22
2022-12-22T17:05:03.261Z,76.75
2022-12-22T17:08:07.877Z,70.93
2022-12-22T17:11:17.759Z,67.63
2022-12-22T17:14:30.528Z,61.42
2022-12-22T17:17:38.578Z,54.45
2022-12-22T17:20:46.325Z,54.35
2022-12-22T17:23:53.803Z,61.85
2022-12-22T17:27:03.381Z,81.67
2022-12-22T17:30:18.124Z,71.78
2022-12-22T17:33:21.410Z,63.55
2022-12-22T17:36:37.933Z,73.87
2022-12-22T17:39:40.968Z,79.55
2022-12-22T17:42:44.601Z,61.63
2022-12-22T17:45:48.387Z,59.00
2022-12-22T17:48:51.812Z,55.83
2022-12-22T17:51:54.758Z,50.12
2022-12-22T17:54:57.589Z,60.92
2022-12-22T17:58:00.578Z,55.27
2022-12-22T18:01:03.402Z,74.62
2022-12-22T18:04:10.116Z,69.72
2022-12-22T18:07:14.861Z,81.57
2022-12-22T18:10:39.985Z,81.40
2022-12-22T18:13:43.280Z,66.27
2022-12-22T18:16:46.185Z,68.45
2022-12-22T18:19:52.096Z,77.90
2022-12-22T18:22:57.934Z,80.38
2022-12-22T18:26:04.712Z,83.93
2022-12-22T18:29:14.460Z,89.67
2022-12-22T18:32:26.279Z,78.35
2022-12-22T18:35:32.903Z,72.65
2022-12-22T18:38:36.426Z,79.62
2022-12-22T18:41:39.868Z,91.78
2022-12-22T18:44:42.579Z,98.50
2022-12-22T18:47:45.822Z,84.80
2022-12-22T18:50:52.339Z,89.10
2022-12-22T18:53:55.236Z,90.38
2022-12-22T18:56:58.034Z,92.88
2022-12-22T19:00:01.146Z,64.73
2022-12-22T19:03:18.203Z,81.87
2022-12-22T19:06:22.712Z,69.60
2022-12-22T19:09:27.157Z,73.70
2022-12-22T19:12:30.307Z,65.80
2022-12-22T19:15:36.686Z,65.40
2022-12-22T19:18:39.492Z,61.55
2022-12-22T19:21:42.342Z,66.70
2022-12-22T19:24:45.826Z,73.37
2022-12-22T19:27:50.989Z,72.43
2022-12-22T19:30:57.565Z,79.60
2022-12-22T19:34:03.693Z,82.88
2022-12-22T19:37:06.860Z,84.72
2022-12-22T19:40:10.479Z,76.30
2022-12-22T19:43:14.603Z,62.57
2022-12-22T19:46:17.693Z,72.20
2022-12-22T19:49:27.342Z,77.28
2022-12-22T19:52:30.437Z,73.47
2022-12-22T19:55:37.395Z,78.05
2022-12-22T19:58:41.268Z,84.10
2022-12-22T20:01:44.271Z,85.28
2022-12-22T20:04:48.252Z,66.57
2022-12-22T20:07:52.696Z,78.32
2022-12-22T20:10:59.921Z,73.75
2022-12-22T20:14:02.807Z,72.07
2022-12-22T20:17:09.848Z,79.65
2022-12-22T20:20:26.054Z,78.70
2022-12-22T20:23:30.957Z,81.95
2022-12-22T20:26:34.133Z,87.55
2022-12-22T20:29:37.239Z,77.17
2022-12-22T20:32:40.085Z,89.85
2022-12-22T20:35:43.986Z,87.70
2022-12-22T20:38:48.335Z,87.00
2022-12-22T20:41:53.768Z,85.55
2022-12-22T20:45:03.782Z,79.50
2022-12-22T20:48:07.545Z,76.20
2022-12-22T20:51:16.375Z,77.07
2022-12-22T20:54:19.380Z,84.93
2022-12-22T20:57:23.579Z,81.72
2022-12-22T21:00:28.704Z,89.87
2022-12-22T21:03:34.432Z,83.05
2022-12-22T21:06:39.048Z,82.00
2022-12-22T21:09:42.397Z,86.47
2022-12-22T21:12:45.433Z,78.15
2022-12-22T21:15:50.630Z,82.13
2022-12-22T21:18:54.378Z,90.55
2022-12-22T21:21:57.685Z,84.40
2022-12-22T21:25:00.548Z,87.60
2022-12-22T21:28:03.898Z,80.90
2022-12-22T21:31:07.495Z,82.00
2022-12-22T21:34:11.566Z,95.53
2022-12-22T21:37:18.528Z,86.95
2022-12-22T21:40:22.845Z,85.75
2022-12-22T21:43:26.136Z,77.40
2022-12-22T21:46:31.935Z,77.57
2022-12-22T21:49:34.925Z,82.50
2022-12-22T21:52:37.916Z,71.57
2022-12-22T21:55:41.363Z,71.70
2022-12-22T21:58:44.254Z,74.03
2022-12-22T22:01:47.542Z,80.13
2022-12-22T22:04:55.009Z,69.28
2022-12-22T22:07:59.067Z,67.68
2022-12-22T22:11:02.024Z,74.12
2022-12-22T22:14:08.331Z,70.90
2022-12-22T22:17:11.872Z,77.07
2022-12-22T22:20:21.075Z,78.50
2022-12-22T22:23:24.128Z,71.97
2022-12-22T22:26:27.107Z,68.62
2022-12-22T22:29:29.968Z,75.22
2022-12-22T22:32:33.127Z,71.73
2022-12-22T22:35:35.991Z,64.87
2022-12-22T22:38:44.388Z,67.62
2022-12-22T22:41:47.275Z,75.53
2022-12-22T22:44:50.249Z,81.28
2022-12-22T22:47:54.352Z,77.27
2022-12-22T22:51:01.270Z,81.60
2022-12-22T22:54:04.275Z,80.93
2022-12-22T22:57:07.308Z,77.80
2022-12-22T23:00:13.247Z,83.78
2022-12-22T23:03:16.856Z,83.10
2022-12-22T23:06:20.759Z,75.45
2022-12-22T23:09:23.796Z,64.65
2022-12-22T23:12:28.344Z,76.40
2022-12-22T23:15:31.312Z,78.87
2022-12-22T23:18:34.335Z,76.93
2022-12-22T23:21:37.560Z,68.20
2022-12-22T23:24:40.539Z,64.62
2022-12-22T23:27:46.746Z,77.55
2022-12-22T23:30:51.534Z,66.78
2022-12-22T23:33:56.699Z,65.30
2022-12-22T23:36:59.568Z,67.85
2022-12-22T23:40:33.162Z,71.07
2022-12-22T23:43:25.217Z,73.90
2022-12-22T23:46:28.096Z,71.00
2022-12-22T23:49:34.050Z,63.63
2022-12-22T23:52:37.173Z,73.15
2022-12-22T23:55:47.309Z,73.78
2022-12-22T23:58:54.657Z,69.28
